createdAt,value
2022-09-07T00:00:58.211Z,99625.78
2022-09-07T00:03:45.969Z,99636.78
2022-09-07T00:06:34.632Z,99636.78
2022-09-07T00:09:22.350Z,99644.94
2022-09-07T00:12:10.145Z,99646.22
2022-09-07T00:14:57.880Z,99652.59
2022-09-07T00:17:45.694Z,99633.19
2022-09-07T00:20:33.594Z,99654.63
2022-09-07T00:23:21.333Z,99646.47
2022-09-07T00:26:19.463Z,99633.97
2022-09-07T00:29:07.933Z,99634.22
2022-09-07T00:31:55.737Z,99639.59
2022-09-07T00:34:43.557Z,99636.78
2022-09-07T00:37:31.336Z,99637.78
2022-09-07T00:40:19.117Z,99634.69
2022-09-07T00:43:07.462Z,99631.63
2022-09-07T00:45:55.467Z,99637.22
2022-09-07T00:49:08.081Z,99618.13
2022-09-07T00:52:01.335Z,99639.00
2022-09-07T00:54:55.050Z,99641.31
2022-09-07T00:57:49.181Z,99626.25
2022-09-07T01:00:37.237Z,99622.41
2022-09-07T01:03:31.033Z,99619.34
2022-09-07T01:06:39.655Z,99625.47
2022-09-07T01:09:28.232Z,99635.44
2022-09-07T01:12:16.082Z,99664.03
2022-09-07T01:15:04.718Z,99673.97
2022-09-07T01:18:12.980Z,99661.00
2022-09-07T01:21:22.081Z,99652.56
2022-09-07T01:24:55.673Z,99629.41
2022-09-07T01:28:11.080Z,99637.28
2022-09-07T01:31:13.818Z,99610.75
2022-09-07T01:34:25.873Z,99608.41
2022-09-07T01:37:24.393Z,99612.50
2022-09-07T01:40:41.015Z,99605.38
2022-09-07T01:43:46.246Z,99600.28
2022-09-07T01:46:49.318Z,99574.00
2022-09-07T01:49:51.423Z,99555.41
2022-09-07T01:53:09.725Z,99554.63
2022-09-07T01:56:28.053Z,99556.16
2022-09-07T01:59:35.915Z,99573.72
2022-09-07T02:02:35.552Z,99584.94
2022-09-07T02:05:40.703Z,99582.13
2022-09-07T02:08:37.853Z,99594.88
2022-09-07T02:11:43.854Z,99569.63
2022-09-07T02:14:37.814Z,99598.97
2022-09-07T02:17:33.975Z,99590.56
2022-09-07T02:20:33.517Z,99619.06
2022-09-07T02:23:26.534Z,99616.78
2022-09-07T02:26:22.695Z,99623.56
2022-09-07T02:29:10.481Z,99612.53
2022-09-07T02:31:58.442Z,99640.63
2022-09-07T02:34:46.296Z,99632.22
2022-09-07T02:37:35.464Z,99619.72
2022-09-07T02:40:23.433Z,99645.47
2022-09-07T02:43:12.017Z,99658.16
2022-09-07T02:47:06.046Z,99725.38
2022-09-07T02:50:30.600Z,99729.41
2022-09-07T02:53:52.667Z,99668.47
2022-09-07T02:57:13.592Z,99690.19
2022-09-07T03:00:13.447Z,99672.91
2022-09-07T03:03:39.194Z,99659.91
2022-09-07T03:06:35.183Z,99669.88
2022-09-07T03:09:28.628Z,99669.91
2022-09-07T03:12:17.400Z,99671.38
2022-09-07T03:15:05.877Z,99662.19
2022-09-07T03:17:54.196Z,99662.69
2022-09-07T03:20:42.002Z,99633.06
2022-09-07T03:23:29.776Z,99655.06
2022-09-07T03:26:25.101Z,99646.91
2022-09-07T03:29:13.308Z,99622.81
2022-09-07T03:32:01.090Z,99626.09
2022-09-07T03:34:48.855Z,99631.69
2022-09-07T03:37:38.357Z,99622.50
2022-09-07T03:40:26.194Z,99616.66
2022-09-07T03:43:14.020Z,99596.47
2022-09-07T03:46:05.645Z,99596.03
2022-09-07T03:48:53.813Z,99597.09
2022-09-07T03:51:41.630Z,99597.63
2022-09-07T03:54:29.506Z,99606.84
2022-09-07T03:57:17.305Z,99617.31
2022-09-07T04:00:06.219Z,99617.06
2022-09-07T04:02:54.089Z,99609.16
2022-09-07T04:05:41.901Z,99605.88
2022-09-07T04:08:32.386Z,99620.44
2022-09-07T04:11:20.283Z,99603.31
2022-09-07T04:14:09.721Z,99621.94
2022-09-07T04:16:57.576Z,99608.66
2022-09-07T04:19:45.384Z,99607.88
2022-09-07T04:22:33.135Z,99606.09
2022-09-07T04:25:20.938Z,99608.88
2022-09-07T04:28:08.856Z,99621.88
2022-09-07T04:31:01.999Z,99605.56
2022-09-07T04:33:51.310Z,99596.38
2022-09-07T04:36:39.197Z,99607.28
2022-09-07T04:39:27.024Z,99591.75
2022-09-07T04:42:14.867Z,99592.22
2022-09-07T04:45:03.573Z,99600.13
2022-09-07T04:47:51.755Z,99603.47
2022-09-07T04:50:39.485Z,99606.75
2022-09-07T04:53:27.270Z,99621.56
2022-09-07T04:56:17.129Z,99610.84
2022-09-07T04:59:04.994Z,99605.28
2022-09-07T05:01:53.003Z,99609.13
2022-09-07T05:04:40.769Z,99597.88
2022-09-07T05:07:28.536Z,99609.13
2022-09-07T05:10:16.354Z,99604.00
2022-09-07T05:13:04.209Z,99621.81
2022-09-07T05:15:51.980Z,99626.97
2022-09-07T05:18:39.863Z,99612.00
2022-09-07T05:21:33.442Z,99592.84
2022-09-07T05:24:22.996Z,99621.50
2022-09-07T05:27:11.168Z,99576.41
2022-09-07T05:32:52.763Z,99633.63
2022-09-07T05:35:40.596Z,99633.13
2022-09-07T05:38:29.092Z,99630.06
2022-09-07T05:41:19.814Z,99634.94
2022-09-07T05:47:15.568Z,99613.50
2022-09-07T05:50:04.533Z,99619.13
2022-09-07T05:52:52.787Z,99642.34
2022-09-07T05:55:40.636Z,99630.63
2022-09-07T05:58:29.283Z,99648.25
2022-09-07T06:01:18.237Z,99643.41
2022-09-07T06:04:06.366Z,99649.47
2022-09-07T06:13:09.543Z,99652.41
2022-09-07T06:16:05.373Z,99639.28
2022-09-07T06:18:53.128Z,99644.25
2022-09-07T06:21:40.942Z,99651.81
2022-09-07T06:24:28.710Z,99644.31
2022-09-07T06:27:16.466Z,99645.47
2022-09-07T06:30:05.184Z,99632.38
2022-09-07T06:32:52.938Z,99649.38
2022-09-07T06:35:40.706Z,99654.28
2022-09-07T06:38:38.496Z,99659.31
2022-09-07T06:44:36.957Z,99674.28
2022-09-07T06:47:24.732Z,99659.31
2022-09-07T06:50:13.609Z,99672.47
2022-09-07T06:56:15.622Z,99680.19
2022-09-07T06:59:03.417Z,99682.59
2022-09-07T07:01:51.222Z,99671.81
2022-09-07T07:04:41.138Z,99677.97
2022-09-07T07:07:29.510Z,99670.44
2022-09-07T07:10:22.208Z,99681.34
2022-09-07T07:13:12.242Z,99670.66
2022-09-07T07:16:12.392Z,99682.28
2022-09-07T07:19:00.255Z,99679.94
2022-09-07T07:22:10.829Z,99673.69
2022-09-07T07:24:55.729Z,99667.31
2022-09-07T07:27:45.823Z,99677.00
2022-09-07T07:30:38.555Z,99657.53
2022-09-07T07:33:34.539Z,99677.44
2022-09-07T07:36:25.667Z,99674.69
2022-09-07T07:42:26.365Z,99679.44
2022-09-07T07:48:25.262Z,99688.66
2022-09-07T07:51:15.364Z,99696.31
2022-09-07T07:54:03.111Z,99691.00
2022-09-07T07:56:50.801Z,99693.66
2022-09-07T07:59:39.297Z,99669.13
2022-09-07T08:02:27.130Z,99694.34
2022-09-07T08:05:17.005Z,99685.91
2022-09-07T08:08:04.744Z,99693.25
2022-09-07T08:10:53.040Z,99690.00
2022-09-07T08:13:42.818Z,99694.03
2022-09-07T08:16:30.784Z,99710.19
2022-09-07T08:19:18.520Z,99717.22
2022-09-07T08:22:07.794Z,99717.78
2022-09-07T08:24:58.210Z,99712.00
2022-09-07T08:27:46.038Z,99722.41
2022-09-07T08:30:33.883Z,99714.06
2022-09-07T08:33:23.076Z,99719.38
2022-09-07T08:36:17.920Z,99711.00
2022-09-07T08:39:08.241Z,99707.59
2022-09-07T08:42:31.219Z,99710.44
2022-09-07T08:45:32.375Z,99712.53
2022-09-07T08:48:31.116Z,99709.78
2022-09-07T08:51:43.433Z,99706.56
2022-09-07T08:54:31.207Z,99720.44
2022-09-07T08:57:30.296Z,99729.88
2022-09-07T09:00:23.127Z,99729.00
2022-09-07T09:03:32.335Z,99726.72
2022-09-07T09:06:47.703Z,99741.38
2022-09-07T09:10:30.112Z,99729.22
2022-09-07T09:13:57.590Z,99730.50
2022-09-07T09:16:55.499Z,99735.59
2022-09-07T09:20:01.565Z,99731.69
2022-09-07T09:23:13.173Z,99739.66
2022-09-07T09:26:18.246Z,99719.84
2022-09-07T09:29:21.845Z,99722.56
2022-09-07T09:32:39.637Z,99710.22
2022-09-07T09:35:44.889Z,99718.13
2022-09-07T09:38:43.596Z,99716.19
2022-09-07T09:41:41.275Z,99720.81
2022-09-07T09:44:37.503Z,99716.44
2022-09-07T09:47:32.578Z,99711.47
2022-09-07T09:53:57.242Z,99694.13
2022-09-07T09:56:47.316Z,99707.97
2022-09-07T10:06:25.994Z,99681.78
2022-09-07T10:09:22.512Z,99696.03
2022-09-07T10:12:35.181Z,99692.81
2022-09-07T10:15:40.587Z,99679.78
2022-09-07T10:18:54.198Z,99680.00
2022-09-07T10:22:00.482Z,99690.50
2022-09-07T10:24:51.338Z,99677.97
2022-09-07T10:27:46.771Z,99669.91
2022-09-07T10:30:49.650Z,99680.50
2022-09-07T10:34:27.233Z,99661.88
2022-09-07T10:37:36.390Z,99661.16
2022-09-07T10:40:40.630Z,99654.69
2022-09-07T10:43:46.109Z,99656.94
2022-09-07T10:47:00.260Z,99644.38
2022-09-07T10:53:42.135Z,99652.94
2022-09-07T10:56:41.824Z,99636.59
2022-09-07T11:00:08.251Z,99648.13
2022-09-07T11:03:47.162Z,99640.91
2022-09-07T11:06:41.397Z,99657.28
2022-09-07T11:09:42.793Z,99650.47
2022-09-07T11:12:39.327Z,99635.63
2022-09-07T11:15:33.287Z,99632.78
2022-09-07T11:18:27.379Z,99625.78
2022-09-07T11:21:56.206Z,99626.56
2022-09-07T11:28:38.233Z,99607.25
2022-09-07T11:31:45.610Z,99620.00
2022-09-07T11:34:45.996Z,99613.00
2022-09-07T11:37:43.638Z,99622.47
2022-09-07T11:40:36.041Z,99610.53
2022-09-07T11:43:41.314Z,99621.34
2022-09-07T11:46:41.819Z,99589.69
2022-09-07T11:49:30.745Z,99593.31
2022-09-07T11:52:42.330Z,99611.50
2022-09-07T11:55:38.690Z,99605.25
2022-09-07T11:59:09.267Z,99611.88
2022-09-07T12:02:32.335Z,99597.66
2022-09-07T12:05:55.351Z,99605.44
2022-09-07T12:09:14.262Z,99598.41
2022-09-07T12:12:44.115Z,99591.44
2022-09-07T12:15:50.119Z,99579.31
2022-09-07T12:18:46.630Z,99575.69
2022-09-07T12:21:44.112Z,99556.00
2022-09-07T12:24:46.766Z,99563.00
2022-09-07T12:27:34.341Z,99564.34
2022-09-07T12:30:22.053Z,99563.19
2022-09-07T12:33:37.397Z,99559.03
2022-09-07T12:36:28.212Z,99555.03
2022-09-07T12:39:30.317Z,99552.97
2022-09-07T12:42:36.721Z,99545.19
2022-09-07T12:45:30.949Z,99556.56
2022-09-07T12:48:29.523Z,99529.28
2022-09-07T12:55:29.310Z,99545.09
2022-09-07T12:58:30.519Z,99563.81
2022-09-07T13:01:33.359Z,99585.41
2022-09-07T13:04:58.162Z,99588.47
2022-09-07T13:08:09.666Z,99617.44
2022-09-07T13:11:15.271Z,99637.28
2022-09-07T13:14:16.902Z,99661.88
2022-09-07T13:17:36.172Z,99657.50
2022-09-07T13:20:30.280Z,99636.34
2022-09-07T13:23:22.160Z,99625.56
2022-09-07T13:26:12.773Z,99618.22
2022-09-07T13:29:12.944Z,99606.41
2022-09-07T13:32:19.958Z,99592.41
2022-09-07T13:35:21.439Z,99609.72
2022-09-07T13:38:13.718Z,99600.53
2022-09-07T13:41:14.927Z,99608.63
2022-09-07T13:44:04.296Z,99617.25
2022-09-07T13:47:22.691Z,99605.78
2022-09-07T13:53:53.323Z,99586.41
2022-09-07T13:57:21.259Z,99598.69
2022-09-07T14:00:16.785Z,99596.41
2022-09-07T14:03:07.411Z,99598.16
2022-09-07T14:06:25.463Z,99587.06
2022-09-07T14:09:21.884Z,99599.69
2022-09-07T14:12:16.577Z,99578.78
2022-09-07T14:15:41.020Z,99592.78
2022-09-07T14:18:32.940Z,99580.94
2022-09-07T14:21:20.872Z,99576.72
2022-09-07T14:24:24.655Z,99575.41
2022-09-07T14:27:37.090Z,99577.66
2022-09-07T14:30:36.427Z,99585.69
2022-09-07T14:33:24.320Z,99583.44
2022-09-07T14:36:29.812Z,99575.94
2022-09-07T14:39:23.890Z,99585.16
2022-09-07T14:42:22.134Z,99590.50
2022-09-07T14:45:26.496Z,99589.03
2022-09-07T14:48:14.766Z,99577.31
2022-09-07T14:51:29.061Z,99574.88
2022-09-07T14:54:38.508Z,99566.59
2022-09-07T14:57:32.246Z,99570.38
2022-09-07T15:00:45.165Z,99545.91
2022-09-07T15:03:53.042Z,99559.94
2022-09-07T15:07:02.293Z,99552.16
2022-09-07T15:09:50.744Z,99552.53
2022-09-07T15:12:43.009Z,99538.34
2022-09-07T15:15:33.776Z,99535.56
2022-09-07T15:18:59.059Z,99527.75
2022-09-07T15:21:46.788Z,99545.59
2022-09-07T15:24:35.606Z,99533.06
2022-09-07T15:27:30.270Z,99522.44
2022-09-07T15:30:20.317Z,99524.72
2022-09-07T15:33:08.938Z,99518.09
2022-09-07T15:35:56.700Z,99514.13
2022-09-07T15:39:00.280Z,99501.25
2022-09-07T15:41:48.535Z,99506.75
2022-09-07T15:44:36.206Z,99513.00
2022-09-07T15:47:43.524Z,99498.78
2022-09-07T15:50:41.984Z,99512.44
2022-09-07T15:56:37.822Z,99505.25
2022-09-07T15:59:25.908Z,99496.50
2022-09-07T16:05:23.276Z,99456.56
2022-09-07T16:08:32.742Z,99471.13
2022-09-07T16:11:24.436Z,99492.13
2022-09-07T16:14:13.619Z,99472.28
2022-09-07T16:20:10.085Z,99502.75
2022-09-07T16:23:13.892Z,99500.09
2022-09-07T16:26:04.401Z,99505.22
2022-09-07T16:28:53.632Z,99472.06
2022-09-07T16:32:44.055Z,99482.47
2022-09-07T16:34:49.269Z,99483.22
2022-09-07T16:37:37.253Z,99482.47
2022-09-07T16:40:28.845Z,99490.94
2022-09-07T16:43:21.626Z,99482.16
2022-09-07T16:46:17.102Z,99486.31
2022-09-07T16:49:07.096Z,99488.38
2022-09-07T16:51:54.955Z,99491.75
2022-09-07T16:54:42.717Z,99469.56
2022-09-07T16:58:35.284Z,99479.38
2022-09-07T17:00:40.351Z,99471.69
2022-09-07T17:03:28.427Z,99476.56
2022-09-07T17:06:18.218Z,99481.28
2022-09-07T17:09:06.439Z,99467.34
2022-09-07T17:11:54.153Z,99449.47
2022-09-07T17:14:42.003Z,99470.09
2022-09-07T17:17:29.818Z,99471.91
2022-09-07T17:20:17.989Z,99476.22
2022-09-07T17:23:05.763Z,99473.03
2022-09-07T17:26:02.198Z,99479.22
2022-09-07T17:28:52.113Z,99467.22
2022-09-07T17:34:47.581Z,99478.69
2022-09-07T17:37:35.360Z,99464.81
2022-09-07T17:40:24.399Z,99466.28
2022-09-07T17:46:23.677Z,99473.91
2022-09-07T17:49:16.384Z,99472.09
2022-09-07T17:52:04.664Z,99454.31
2022-09-07T17:54:55.332Z,99473.53
2022-09-07T17:57:43.123Z,99458.75
2022-09-07T18:00:31.017Z,99487.69
2022-09-07T18:03:18.963Z,99470.00
2022-09-07T18:06:07.397Z,99470.44
2022-09-07T18:08:55.154Z,99471.31
2022-09-07T18:11:48.023Z,99463.94
2022-09-07T18:14:36.614Z,99480.03
2022-09-07T18:17:24.478Z,99498.28
2022-09-07T18:20:12.347Z,99487.88
2022-09-07T18:23:01.127Z,99485.16
2022-09-07T18:25:58.580Z,99473.53
2022-09-07T18:29:19.209Z,99480.94
2022-09-07T18:32:08.293Z,99481.47
2022-09-07T18:34:56.897Z,99474.25
2022-09-07T18:37:44.635Z,99477.84
2022-09-07T18:40:36.518Z,99478.28
2022-09-07T18:43:26.174Z,99492.41
2022-09-07T18:46:21.696Z,99482.41
2022-09-07T18:49:09.554Z,99492.72
2022-09-07T18:55:07.843Z,99488.34
2022-09-07T18:57:55.876Z,99494.00
2022-09-07T19:00:45.945Z,99496.50
2022-09-07T19:03:34.594Z,99494.00
2022-09-07T19:06:24.453Z,99495.00
2022-09-07T19:09:12.630Z,99483.34
2022-09-07T19:12:00.513Z,99481.81
2022-09-07T19:14:50.726Z,99497.88
2022-09-07T19:17:38.502Z,99469.63
2022-09-07T19:20:28.686Z,99479.16
2022-09-07T19:23:16.445Z,99488.75
2022-09-07T19:26:06.869Z,99497.06
2022-09-07T19:28:57.827Z,99478.66
2022-09-07T19:32:03.997Z,99492.84
2022-09-07T19:34:54.575Z,99475.94
2022-09-07T19:37:42.341Z,99473.66
2022-09-07T19:40:30.102Z,99473.41
2022-09-07T19:43:17.817Z,99442.41
2022-09-07T19:46:05.639Z,99445.56
2022-09-07T19:48:53.392Z,99437.09
2022-09-07T19:51:42.402Z,99443.91
2022-09-07T19:54:30.634Z,99422.38
2022-09-07T19:57:18.525Z,99428.16
2022-09-07T20:00:07.068Z,99428.75
2022-09-07T20:02:54.960Z,99430.59
2022-09-07T20:05:42.705Z,99444.31
2022-09-07T20:08:30.475Z,99434.81
2022-09-07T20:11:22.163Z,99444.50
2022-09-07T20:14:10.448Z,99439.09
2022-09-07T20:16:58.294Z,99426.38
2022-09-07T20:19:46.015Z,99407.03
2022-09-07T20:22:33.789Z,99406.72
2022-09-07T20:25:21.812Z,99401.69
2022-09-07T20:28:09.599Z,99411.94
2022-09-07T20:30:57.472Z,99412.72
2022-09-07T20:33:46.895Z,99417.09
2022-09-07T20:36:34.775Z,99409.25
2022-09-07T20:39:22.813Z,99382.56
2022-09-07T20:42:10.682Z,99408.31
2022-09-07T20:44:58.409Z,99399.72
2022-09-07T20:47:46.238Z,99392.16
2022-09-07T20:50:34.035Z,99398.81
2022-09-07T20:53:21.820Z,99401.69
2022-09-07T20:56:18.704Z,99381.38
2022-09-07T20:59:06.819Z,99417.50
2022-09-07T21:01:54.688Z,99401.56
2022-09-07T21:04:43.362Z,99412.50
2022-09-07T21:07:31.229Z,99405.19
2022-09-07T21:10:19.052Z,99402.88
2022-09-07T21:13:09.754Z,99395.44
2022-09-07T21:15:57.547Z,99413.78
2022-09-07T21:18:45.336Z,99400.34
2022-09-07T21:21:40.060Z,99410.25
2022-09-07T21:24:30.747Z,99406.69
2022-09-07T21:27:18.549Z,99388.13
2022-09-07T21:30:07.314Z,99390.41
2022-09-07T21:32:55.467Z,99410.84
2022-09-07T21:35:45.448Z,99425.09
2022-09-07T21:38:35.211Z,99412.09
2022-09-07T21:41:25.021Z,99414.88
2022-09-07T21:44:14.752Z,99404.56
2022-09-07T21:47:02.525Z,99403.13
2022-09-07T21:49:50.992Z,99390.16
2022-09-07T21:52:38.935Z,99414.59
2022-09-07T21:55:26.778Z,99410.78
2022-09-07T21:58:15.241Z,99411.31
2022-09-07T22:01:18.366Z,99401.63
2022-09-07T22:04:07.031Z,99403.78
2022-09-07T22:06:54.928Z,99400.22
2022-09-07T22:09:42.843Z,99400.47
2022-09-07T22:12:31.034Z,99396.19
2022-09-07T22:15:18.764Z,99400.31
2022-09-07T22:18:15.934Z,99404.63
2022-09-07T22:21:10.578Z,99409.78
2022-09-07T22:24:02.043Z,99398.84
2022-09-07T22:26:49.874Z,99401.91
2022-09-07T22:29:37.606Z,99382.84
2022-09-07T22:32:25.415Z,99388.97
2022-09-07T22:35:14.061Z,99389.47
2022-09-07T22:38:01.953Z,99379.28
2022-09-07T22:40:49.705Z,99368.13
2022-09-07T22:43:38.134Z,99361.97
2022-09-07T22:46:29.803Z,99339.09
2022-09-07T22:49:17.765Z,99338.09
2022-09-07T22:52:05.750Z,99325.59
2022-09-07T22:54:53.486Z,99344.44
2022-09-07T22:57:41.219Z,99312.38
2022-09-07T23:00:29.883Z,99314.66
2022-09-07T23:03:18.425Z,99308.31
2022-09-07T23:06:06.334Z,99289.72
2022-09-07T23:08:56.597Z,99306.25
2022-09-07T23:11:46.538Z,99304.47
2022-09-07T23:14:34.418Z,99301.41
2022-09-07T23:17:22.170Z,99299.13
2022-09-07T23:20:10.226Z,99273.91
2022-09-07T23:22:57.965Z,99281.31
2022-09-07T23:25:45.658Z,99286.16
2022-09-07T23:28:33.903Z,99281.31
2022-09-07T23:31:22.653Z,99287.91
2022-09-07T23:34:11.161Z,99256.56
2022-09-07T23:36:58.937Z,99264.47
2022-09-07T23:39:47.435Z,99273.88
2022-09-07T23:42:35.213Z,99268.25
2022-09-07T23:45:22.980Z,99247.63
2022-09-07T23:48:10.726Z,99258.34
2022-09-07T23:50:58.560Z,99253.78
2022-09-07T23:53:46.518Z,99263.22
2022-09-07T23:56:36.703Z,99250.22
2022-09-07T23:59:24.461Z,99238.00
